Time;durP1;ratioP1;P1;durP2;ratioP2;P2;SDS_P1;SDS_P2;PMS_P1;PMS_P2;Temp;Humidity;BMP_temperature;BMP_pressure;BME280_temperature;BME280_humidity;BME280_pressure;Samples;Min_cycle;Max_cycle;Signal;HPM_P1;HPM_P2
2023/01/22 00:01:25;;;;;;;;;34.50;24.50;;;;;;;;5064546;28;61840;-80
2023/01/22 00:03:52;;;;;;;;;30.75;19.00;;;;;;;;5064702;28;61888;-82
2023/01/22 00:06:18;;;;;;;;;37.50;27.50;;;;;;;;5065051;28;61676;-82
2023/01/22 00:08:43;;;;;;;;;37.75;30.50;;;;;;;;5063585;28;61817;-82
2023/01/22 00:11:09;;;;;;;;;41.50;30.50;;;;;;;;5081604;28;62184;-82
2023/01/22 00:13:35;;;;;;;;;37.50;28.25;;;;;;;;5084157;28;61896;-81
2023/01/22 00:16:01;;;;;;;;;31.25;23.50;;;;;;;;5082931;28;61754;-82
2023/01/22 00:18:26;;;;;;;;;40.75;26.75;;;;;;;;5084309;28;61865;-82
2023/01/22 00:20:52;;;;;;;;;35.25;27.25;;;;;;;;5084432;28;61990;-82
2023/01/22 00:23:17;;;;;;;;;39.50;24.75;;;;;;;;5084940;28;62097;-82
2023/01/22 00:25:43;;;;;;;;;39.00;25.75;;;;;;;;5083618;28;62076;-83
2023/01/22 00:28:08;;;;;;;;;30.00;28.50;;;;;;;;5082192;28;64945;-82
2023/01/22 00:30:34;;;;;;;;;23.00;19.25;;;;;;;;5084727;28;61761;-82
2023/01/22 00:32:59;;;;;;;;;37.50;27.25;;;;;;;;5084229;28;61874;-82
2023/01/22 00:35:24;;;;;;;;;37.75;25.75;;;;;;;;5084811;28;61720;-82
2023/01/22 00:37:50;;;;;;;;;26.00;17.75;;;;;;;;5083668;28;61675;-82
2023/01/22 00:40:15;;;;;;;;;34.00;27.75;;;;;;;;5082698;28;62004;-82
2023/01/22 00:42:41;;;;;;;;;31.50;22.50;;;;;;;;5082736;28;61874;-82
2023/01/22 00:45:06;;;;;;;;;29.50;22.75;;;;;;;;5083235;28;62267;-82
2023/01/22 00:47:31;;;;;;;;;35.00;32.00;;;;;;;;5083401;28;62946;-80
2023/01/22 00:49:57;;;;;;;;;35.75;25.25;;;;;;;;5084043;28;61897;-80
2023/01/22 00:52:22;;;;;;;;;31.25;25.75;;;;;;;;5084300;28;61737;-80
2023/01/22 00:54:47;;;;;;;;;31.75;25.25;;;;;;;;5084416;28;61868;-80
2023/01/22 00:57:12;;;;;;;;;23.50;21.75;;;;;;;;5081723;28;63603;-80
2023/01/22 00:59:38;;;;;;;;;32.75;25.75;;;;;;;;5082612;28;61742;-80
2023/01/22 01:02:05;;;;;;;;;37.25;28.50;;;;;;;;5083862;28;61857;-80
2023/01/22 01:04:30;;;;;;;;;31.75;27.25;;;;;;;;5084338;28;62045;-80
2023/01/22 01:06:55;;;;;;;;;31.00;25.25;;;;;;;;5083133;28;62919;-80
2023/01/22 01:09:21;;;;;;;;;33.25;22.00;;;;;;;;5073552;28;62101;-80
2023/01/22 01:11:46;;;;;;;;;42.75;26.00;;;;;;;;5082125;28;61832;-80
2023/01/22 01:14:11;;;;;;;;;24.00;21.25;;;;;;;;5063158;28;61961;-81
2023/01/22 01:16:36;;;;;;;;;45.25;28.25;;;;;;;;5062946;28;62814;-81
2023/01/22 01:19:04;;;;;;;;;34.50;26.50;;;;;;;;5061851;28;61786;-81
2023/01/22 01:21:30;;;;;;;;;25.50;19.75;;;;;;;;5063598;28;61891;-80
2023/01/22 01:23:56;;;;;;;;;35.75;22.75;;;;;;;;5063727;28;62008;-81
2023/01/22 01:26:21;;;;;;;;;23.75;19.00;;;;;;;;5062594;28;63814;-81
2023/01/22 01:28:46;;;;;;;;;36.75;24.75;;;;;;;;5045191;28;62000;-80
2023/01/22 01:31:13;;;;;;;;;34.25;21.25;;;;;;;;5061666;28;61736;-80
2023/01/22 01:33:38;;;;;;;;;31.00;23.25;;;;;;;;5063589;28;62209;-81
2023/01/22 01:36:05;;;;;;;;;31.50;24.00;;;;;;;;5062594;28;62057;-81
2023/01/22 01:38:31;;;;;;;;;41.50;25.25;;;;;;;;5063111;28;61948;-80
2023/01/22 01:40:56;;;;;;;;;34.00;21.25;;;;;;;;5060101;28;62249;-80
2023/01/22 01:43:21;;;;;;;;;37.75;25.50;;;;;;;;5062081;28;61863;-81
2023/01/22 01:45:47;;;;;;;;;26.50;23.00;;;;;;;;5062444;28;62035;-81
2023/01/22 01:48:31;;;;;;;;;38.25;24.50;;;;;;;;5062614;28;62134;-81
2023/01/22 01:50:56;;;;;;;;;31.25;24.00;;;;;;;;5061651;28;61768;-81
2023/01/22 01:53:22;;;;;;;;;37.00;27.25;;;;;;;;5061613;28;61917;-81
2023/01/22 01:55:47;;;;;;;;;44.50;29.50;;;;;;;;5062162;28;62805;-81
2023/01/22 01:58:20;;;;;;;;;35.25;23.50;;;;;;;;5060543;28;61765;-81
2023/01/22 02:00:46;;;;;;;;;39.50;26.75;;;;;;;;5061392;28;61908;-81
2023/01/22 02:03:11;;;;;;;;;30.00;22.50;;;;;;;;5061308;28;62120;-81
2023/01/22 02:05:37;;;;;;;;;32.00;29.25;;;;;;;;5060786;28;63742;-81
2023/01/22 02:08:03;;;;;;;;;47.00;31.00;;;;;;;;5062321;28;61861;-81
2023/01/22 02:10:28;;;;;;;;;36.50;27.25;;;;;;;;5072248;28;62045;-81
2023/01/22 02:12:55;;;;;;;;;38.50;25.25;;;;;;;;5081501;28;61855;-81
2023/01/22 02:15:20;;;;;;;;;39.75;28.25;;;;;;;;5080737;28;63544;-81
2023/01/22 02:17:47;;;;;;;;;27.00;19.50;;;;;;;;5081328;28;61924;-81
2023/01/22 02:20:12;;;;;;;;;37.50;30.25;;;;;;;;5082527;28;61787;-81
2023/01/22 02:22:38;;;;;;;;;39.00;28.25;;;;;;;;5082913;28;61682;-81
2023/01/22 02:25:04;;;;;;;;;29.25;23.50;;;;;;;;5080500;28;64082;-81
2023/01/22 02:27:30;;;;;;;;;43.00;28.75;;;;;;;;5081199;28;61970;-81
2023/01/22 02:29:55;;;;;;;;;38.00;18.75;;;;;;;;5081308;28;61849;-81
2023/01/22 02:32:20;;;;;;;;;49.00;31.75;;;;;;;;5082299;28;61874;-81
2023/01/22 02:34:46;;;;;;;;;34.75;28.00;;;;;;;;5082178;28;61746;-80
2023/01/22 02:37:11;;;;;;;;;43.50;28.75;;;;;;;;5082374;28;62014;-81
2023/01/22 02:39:37;;;;;;;;;40.25;26.75;;;;;;;;5082141;28;61873;-81
2023/01/22 02:42:03;;;;;;;;;44.00;28.00;;;;;;;;5082679;28;61815;-81
2023/01/22 02:44:28;;;;;;;;;39.50;28.75;;;;;;;;5081650;28;61818;-81
2023/01/22 02:46:54;;;;;;;;;37.25;20.00;;;;;;;;5082191;28;62071;-80
2023/01/22 02:49:19;;;;;;;;;41.25;33.00;;;;;;;;5082197;28;61988;-80
2023/01/22 02:51:44;;;;;;;;;39.75;31.00;;;;;;;;5081095;28;61818;-81
2023/01/22 02:54:09;;;;;;;;;35.25;25.75;;;;;;;;5081387;28;61713;-81
2023/01/22 02:56:35;;;;;;;;;33.00;24.75;;;;;;;;5082389;28;61956;-80
2023/01/22 02:59:01;;;;;;;;;34.50;25.50;;;;;;;;5080799;28;62041;-81
2023/01/22 03:01:26;;;;;;;;;41.00;29.00;;;;;;;;5080335;28;61811;-81
2023/01/22 03:03:54;;;;;;;;;36.50;27.25;;;;;;;;5080294;28;63914;-81
2023/01/22 03:06:20;;;;;;;;;41.25;28.00;;;;;;;;5080562;28;61770;-81
2023/01/22 03:08:51;;;;;;;;;42.00;34.75;;;;;;;;5072517;28;61759;-81
2023/01/22 03:11:16;;;;;;;;;50.50;33.25;;;;;;;;5082459;28;61934;-81
2023/01/22 03:21:53;;;;;;;;;53.75;34.50;;;;;;;;5085777;28;61957;-81
2023/01/22 03:24:18;;;;;;;;;39.50;30.50;;;;;;;;5084853;28;61747;-81
2023/01/22 03:26:44;;;;;;;;;37.75;29.00;;;;;;;;5085550;28;61754;-81
2023/01/22 03:29:09;;;;;;;;;53.50;33.75;;;;;;;;5084057;28;61792;-81
2023/01/22 03:31:34;;;;;;;;;41.25;33.75;;;;;;;;5085025;28;62035;-81
2023/01/22 03:33:59;;;;;;;;;52.75;33.00;;;;;;;;5084965;28;61667;-81
2023/01/22 03:36:25;;;;;;;;;68.00;38.67;;;;;;;;5084985;28;61910;-81
2023/01/22 03:38:50;;;;;;;;;50.00;32.67;;;;;;;;5085141;28;61866;-81
2023/01/22 03:41:17;;;;;;;;;40.25;32.75;;;;;;;;5085421;28;61891;-81
2023/01/22 03:43:42;;;;;;;;;34.00;30.25;;;;;;;;5084399;28;61671;-81
2023/01/22 03:46:12;;;;;;;;;44.00;30.25;;;;;;;;5085202;28;61776;-81
2023/01/22 03:48:37;;;;;;;;;48.67;35.33;;;;;;;;5083353;28;61757;-81
2023/01/22 03:51:06;;;;;;;;;53.75;31.25;;;;;;;;5085312;28;61895;-81
2023/01/22 03:53:31;;;;;;;;;26.75;24.00;;;;;;;;5082848;28;63935;-81
2023/01/22 03:55:58;;;;;;;;;34.75;29.00;;;;;;;;5083691;28;61827;-81
2023/01/22 03:58:23;;;;;;;;;40.00;33.75;;;;;;;;5083487;28;61810;-81
2023/01/22 04:00:49;;;;;;;;;35.00;25.75;;;;;;;;5085014;28;62034;-81
2023/01/22 04:03:14;;;;;;;;;37.75;27.00;;;;;;;;5082847;28;63980;-81
2023/01/22 04:05:39;;;;;;;;;39.25;29.75;;;;;;;;5084364;28;61928;-81
2023/01/22 04:08:04;;;;;;;;;41.50;29.00;;;;;;;;5081572;28;61854;-81
2023/01/22 04:10:30;;;;;;;;;34.75;24.00;;;;;;;;5066295;28;61955;-81
2023/01/22 04:12:55;;;;;;;;;41.00;25.75;;;;;;;;5082454;28;63732;-81
2023/01/22 04:15:20;;;;;;;;;30.25;15.75;;;;;;;;5084701;28;61993;-81
2023/01/22 04:17:45;;;;;;;;;31.75;23.25;;;;;;;;5084498;28;61749;-81
2023/01/22 04:20:11;;;;;;;;;45.75;27.75;;;;;;;;5084809;27;61767;-81
2023/01/22 04:22:36;;;;;;;;;34.50;27.50;;;;;;;;5083458;28;62035;-81
2023/01/22 04:25:01;;;;;;;;;37.25;21.50;;;;;;;;5084558;28;61752;-81
2023/01/22 04:27:27;;;;;;;;;46.50;36.75;;;;;;;;5084304;28;61665;-81
2023/01/22 04:29:52;;;;;;;;;38.00;30.50;;;;;;;;5082904;28;61812;-81
2023/01/22 04:32:17;;;;;;;;;39.50;29.00;;;;;;;;5083539;28;61918;-81
2023/01/22 04:34:43;;;;;;;;;38.25;26.25;;;;;;;;5082724;28;61877;-81
2023/01/22 04:37:14;;;;;;;;;40.25;32.25;;;;;;;;5082956;28;61864;-81
2023/01/22 04:39:39;;;;;;;;;40.00;31.00;;;;;;;;5084152;28;62116;-81
2023/01/22 04:42:04;;;;;;;;;30.50;21.75;;;;;;;;5083691;28;61923;-82
2023/01/22 04:44:29;;;;;;;;;35.00;22.50;;;;;;;;5084268;28;61853;-81
2023/01/22 04:46:55;;;;;;;;;35.75;23.50;;;;;;;;5082755;28;62149;-81
2023/01/22 04:49:20;;;;;;;;;43.50;30.75;;;;;;;;5082679;28;61831;-81
2023/01/22 04:51:45;;;;;;;;;35.50;26.50;;;;;;;;5083202;28;61769;-81
2023/01/22 04:54:10;;;;;;;;;36.50;26.00;;;;;;;;5082862;28;61893;-81
2023/01/22 04:56:36;;;;;;;;;33.00;24.75;;;;;;;;5084160;28;61999;-82
2023/01/22 04:59:01;;;;;;;;;40.00;28.50;;;;;;;;5084059;28;62246;-81
2023/01/22 05:01:26;;;;;;;;;31.50;24.75;;;;;;;;5081321;28;63667;-80
2023/01/22 05:03:51;;;;;;;;;38.75;24.75;;;;;;;;5082175;28;61867;-81
2023/01/22 05:06:17;;;;;;;;;30.25;21.75;;;;;;;;5082534;28;61835;-81
2023/01/22 05:08:42;;;;;;;;;27.75;26.50;;;;;;;;5076926;28;62236;-81
2023/01/22 05:11:07;;;;;;;;;45.75;28.00;;;;;;;;5079584;28;63172;-81
2023/01/22 05:13:33;;;;;;;;;44.75;29.00;;;;;;;;5083791;28;61950;-82
2023/01/22 05:15:58;;;;;;;;;37.00;21.25;;;;;;;;5082383;28;62070;-81
2023/01/22 05:18:23;;;;;;;;;28.75;23.00;;;;;;;;5083570;28;62096;-81
2023/01/22 05:20:48;;;;;;;;;35.50;25.00;;;;;;;;5081359;28;63859;-81
2023/01/22 05:23:14;;;;;;;;;35.75;26.50;;;;;;;;5082387;28;61871;-81
2023/01/22 05:25:39;;;;;;;;;28.75;25.75;;;;;;;;5082415;28;62006;-81
2023/01/22 05:28:04;;;;;;;;;39.00;27.50;;;;;;;;5083992;28;61924;-81
2023/01/22 05:30:29;;;;;;;;;29.75;25.75;;;;;;;;5083305;28;61950;-80
2023/01/22 05:32:55;;;;;;;;;35.00;26.25;;;;;;;;5082169;28;61720;-81
2023/01/22 05:35:21;;;;;;;;;34.25;26.25;;;;;;;;5083674;28;61783;-81
2023/01/22 05:37:46;;;;;;;;;39.00;21.00;;;;;;;;5083205;28;61971;-81
2023/01/22 05:40:12;;;;;;;;;36.00;26.75;;;;;;;;5083034;28;63017;-81
2023/01/22 05:42:37;;;;;;;;;28.75;21.50;;;;;;;;5083481;28;61631;-81
2023/01/22 05:45:03;;;;;;;;;40.25;27.75;;;;;;;;5083009;28;61794;-81
2023/01/22 05:47:28;;;;;;;;;30.25;24.75;;;;;;;;5081809;28;62061;-81
2023/01/22 05:49:54;;;;;;;;;37.25;27.75;;;;;;;;5082486;28;62027;-81
2023/01/22 05:52:19;;;;;;;;;30.25;22.25;;;;;;;;5083170;28;61934;-81
2023/01/22 05:54:45;;;;;;;;;34.75;28.50;;;;;;;;5081586;28;62139;-81
2023/01/22 05:57:10;;;;;;;;;32.75;27.00;;;;;;;;5083426;28;61968;-81
2023/01/22 05:59:35;;;;;;;;;38.50;30.25;;;;;;;;5081056;28;63820;-81
2023/01/22 06:02:00;;;;;;;;;39.00;28.00;;;;;;;;5082318;28;62276;-81
2023/01/22 06:04:26;;;;;;;;;26.25;19.75;;;;;;;;5081831;28;61988;-81
2023/01/22 06:06:51;;;;;;;;;33.00;24.00;;;;;;;;5082748;28;61734;-82
2023/01/22 06:09:16;;;;;;;;;34.75;27.50;;;;;;;;5071847;28;61961;-81
2023/01/22 06:11:42;;;;;;;;;40.75;27.50;;;;;;;;5084479;27;61870;-81
2023/01/22 06:14:07;;;;;;;;;28.50;21.25;;;;;;;;5083383;27;62001;-81
2023/01/22 06:16:32;;;;;;;;;42.00;29.25;;;;;;;;5064385;28;62173;-81
2023/01/22 06:18:59;;;;;;;;;37.50;25.50;;;;;;;;5082209;28;61771;-81
2023/01/22 06:21:26;;;;;;;;;34.75;25.00;;;;;;;;5064419;28;61735;-81
2023/01/22 06:23:56;;;;;;;;;38.50;29.25;;;;;;;;5082761;28;61929;-81
2023/01/22 06:26:21;;;;;;;;;41.00;31.25;;;;;;;;5082941;28;61755;-82
2023/01/22 06:28:47;;;;;;;;;30.25;24.00;;;;;;;;5082034;28;62022;-81
2023/01/22 06:31:12;;;;;;;;;33.75;22.75;;;;;;;;5082404;28;62025;-81
2023/01/22 06:33:38;;;;;;;;;29.75;24.50;;;;;;;;5064164;28;61929;-81
2023/01/22 06:36:04;;;;;;;;;37.00;25.75;;;;;;;;5064717;28;61908;-81
2023/01/22 06:38:29;;;;;;;;;44.00;33.00;;;;;;;;5063623;28;63686;-81
2023/01/22 06:40:56;;;;;;;;;31.25;21.25;;;;;;;;5064316;28;62271;-81
2023/01/22 06:43:22;;;;;;;;;39.00;24.75;;;;;;;;5082692;28;61888;-81
2023/01/22 06:45:47;;;;;;;;;38.75;26.00;;;;;;;;5082346;28;61842;-81
2023/01/22 06:48:12;;;;;;;;;37.75;28.75;;;;;;;;5063204;28;63748;-81
2023/01/22 06:50:38;;;;;;;;;35.67;25.67;;;;;;;;5082810;28;61786;-81
2023/01/22 06:53:03;;;;;;;;;34.00;27.00;;;;;;;;5064161;28;61844;-81
2023/01/22 06:55:28;;;;;;;;;33.67;26.67;;;;;;;;5082821;28;61739;-81
2023/01/22 06:57:54;;;;;;;;;33.75;27.75;;;;;;;;5063514;28;64095;-82
2023/01/22 07:00:19;;;;;;;;;38.50;31.25;;;;;;;;5081772;28;61797;-81
2023/01/22 07:02:44;;;;;;;;;36.50;27.25;;;;;;;;5063694;28;61762;-81
2023/01/22 07:05:10;;;;;;;;;53.25;32.25;;;;;;;;5082318;28;61772;-81
2023/01/22 07:07:35;;;;;;;;;41.00;29.75;;;;;;;;5081495;28;62680;-81
2023/01/22 07:10:00;;;;;;;;;31.25;24.75;;;;;;;;5089308;27;62059;-81
2023/01/22 07:12:25;;;;;;;;;36.50;24.25;;;;;;;;5083971;27;61877;-81
2023/01/22 07:14:51;;;;;;;;;31.00;26.50;;;;;;;;5102443;27;61733;-81
2023/01/22 07:17:16;;;;;;;;;29.00;25.25;;;;;;;;5083325;27;64048;-81
2023/01/22 07:19:41;;;;;;;;;33.00;27.50;;;;;;;;5102298;27;61936;-81
2023/01/22 07:22:07;;;;;;;;;29.50;23.50;;;;;;;;5102420;27;61724;-81
2023/01/22 07:24:32;;;;;;;;;32.00;23.50;;;;;;;;5102629;27;61744;-81
2023/01/22 07:26:57;;;;;;;;;44.00;25.50;;;;;;;;5101678;27;62743;-81
2023/01/22 07:29:22;;;;;;;;;34.50;26.00;;;;;;;;5101751;27;61741;-81
2023/01/22 07:31:48;;;;;;;;;35.00;25.50;;;;;;;;5102159;27;61931;-81
2023/01/22 07:34:13;;;;;;;;;32.50;25.00;;;;;;;;5102287;27;61729;-81
2023/01/22 07:36:38;;;;;;;;;36.00;26.67;;;;;;;;5083066;27;64687;-81
2023/01/22 07:39:04;;;;;;;;;42.33;34.00;;;;;;;;5101694;27;61916;-81
2023/01/22 07:41:29;;;;;;;;;41.00;30.50;;;;;;;;5101989;27;61897;-81
2023/01/22 07:43:56;;;;;;;;;35.50;23.75;;;;;;;;5083724;27;61960;-82
2023/01/22 07:46:22;;;;;;;;;39.00;30.75;;;;;;;;5082405;27;64803;-81
2023/01/22 07:48:47;;;;;;;;;30.50;22.25;;;;;;;;5083319;27;61812;-80
2023/01/22 07:51:12;;;;;;;;;31.25;28.25;;;;;;;;5101807;27;61890;-81
2023/01/22 07:53:38;;;;;;;;;30.00;23.75;;;;;;;;5083386;27;62114;-82
2023/01/22 07:56:04;;;;;;;;;45.00;29.00;;;;;;;;5101987;27;61756;-80
2023/01/22 07:58:30;;;;;;;;;40.25;27.50;;;;;;;;5104985;27;61943;-81
2023/01/22 08:00:55;;;;;;;;;29.25;24.50;;;;;;;;5086642;27;61814;-80
2023/01/22 08:03:20;;;;;;;;;39.50;26.75;;;;;;;;5105361;27;61798;-82
2023/01/22 08:05:45;;;;;;;;;21.75;11.50;;;;;;;;5086239;27;63892;-81
2023/01/22 08:08:12;;;;;;;;;46.00;27.00;;;;;;;;5102234;27;62076;-81
2023/01/22 08:10:37;;;;;;;;;33.75;22.50;;;;;;;;5079158;27;61944;-82
2023/01/22 08:13:03;;;;;;;;;35.00;24.75;;;;;;;;5104719;27;61849;-81
2023/01/22 08:15:28;;;;;;;;;34.00;25.25;;;;;;;;5104191;27;62487;-81
2023/01/22 08:17:53;;;;;;;;;20.25;13.25;;;;;;;;5105194;27;61835;-81
2023/01/22 08:20:19;;;;;;;;;28.75;21.50;;;;;;;;5105128;27;61882;-81
2023/01/22 08:22:45;;;;;;;;;34.75;19.25;;;;;;;;5105172;27;61675;-83
2023/01/22 08:25:10;;;;;;;;;23.75;21.50;;;;;;;;5086316;27;64872;-82
2023/01/22 08:27:35;;;;;;;;;30.00;20.00;;;;;;;;5104466;27;61938;-83
2023/01/22 08:30:01;;;;;;;;;38.50;26.00;;;;;;;;5086732;27;61884;-82
2023/01/22 08:32:27;;;;;;;;;31.75;19.25;;;;;;;;5105157;27;62193;-83
2023/01/22 08:34:53;;;;;;;;;34.50;25.25;;;;;;;;5086000;27;64003;-82
2023/01/22 08:37:19;;;;;;;;;34.25;25.00;;;;;;;;5104923;27;61672;-84
2023/01/22 08:39:44;;;;;;;;;28.00;20.75;;;;;;;;5086105;27;61797;-84
2023/01/22 08:42:09;;;;;;;;;45.25;24.50;;;;;;;;5086340;27;61698;-83
2023/01/22 08:44:34;;;;;;;;;31.25;24.25;;;;;;;;5075455;28;64920;-83
2023/01/22 08:47:00;;;;;;;;;22.25;18.00;;;;;;;;5065992;28;61632;-82
2023/01/22 08:49:25;;;;;;;;;24.50;21.00;;;;;;;;5083947;28;61866;-82
2023/01/22 08:51:50;;;;;;;;;16.00;16.00;;;;;;;;5084568;28;61999;-82
2023/01/22 08:54:16;;;;;;;;;32.25;20.75;;;;;;;;5065205;28;63641;-82
2023/01/22 08:56:41;;;;;;;;;31.50;18.50;;;;;;;;5083559;28;61864;-81
2023/01/22 08:59:07;;;;;;;;;31.50;18.50;;;;;;;;5065915;28;61867;-83
2023/01/22 09:01:32;;;;;;;;;30.75;23.75;;;;;;;;5084155;28;62015;-83
2023/01/22 09:03:57;;;;;;;;;24.75;20.25;;;;;;;;5083367;28;61840;-82
2023/01/22 09:06:23;;;;;;;;;22.25;17.00;;;;;;;;5083816;28;61724;-86
2023/01/22 09:08:49;;;;;;;;;29.75;22.00;;;;;;;;5066833;27;61978;-85
2023/01/22 09:11:14;;;;;;;;;22.25;19.50;;;;;;;;5104563;27;61818;-83
2023/01/22 09:13:39;;;;;;;;;24.75;21.00;;;;;;;;5103557;27;62777;-82
2023/01/22 09:16:09;;;;;;;;;28.00;20.25;;;;;;;;5104400;27;61637;-83
2023/01/22 09:18:34;;;;;;;;;32.25;21.75;;;;;;;;5085603;27;61857;-83
2023/01/22 09:21:00;;;;;;;;;27.00;21.75;;;;;;;;5104399;27;61952;-83
2023/01/22 09:23:25;;;;;;;;;22.00;18.25;;;;;;;;5103546;27;61847;-83
2023/01/22 09:25:50;;;;;;;;;30.00;23.75;;;;;;;;5069553;28;62092;-83
2023/01/22 09:28:15;;;;;;;;;36.50;26.25;;;;;;;;5083838;28;62180;-84
2023/01/22 09:30:41;;;;;;;;;34.25;21.00;;;;;;;;5083439;28;62107;-83
2023/01/22 09:33:07;;;;;;;;;30.50;20.50;;;;;;;;5064913;28;64072;-83
2023/01/22 09:35:32;;;;;;;;;23.25;19.25;;;;;;;;5083291;28;61788;-83
2023/01/22 09:37:57;;;;;;;;;30.75;20.25;;;;;;;;5065211;28;61828;-83
2023/01/22 09:40:25;;;;;;;;;37.00;24.00;;;;;;;;5065101;28;61967;-83
2023/01/22 09:42:53;;;;;;;;;30.00;19.00;;;;;;;;5064103;28;63789;-83
2023/01/22 09:45:21;;;;;;;;;22.00;19.00;;;;;;;;5083472;28;61861;-83
2023/01/22 09:47:48;;;;;;;;;22.50;18.50;;;;;;;;5064349;28;62144;-83
2023/01/22 09:50:18;;;;;;;;;30.00;23.00;;;;;;;;5083272;28;61802;-83
2023/01/22 09:52:44;;;;;;;;;38.75;27.50;;;;;;;;5063803;28;63817;-82
2023/01/22 09:55:15;;;;;;;;;26.00;20.50;;;;;;;;5065470;28;61808;-83
2023/01/22 09:57:47;;;;;;;;;31.25;23.75;;;;;;;;5083306;28;61918;-80
2023/01/22 10:00:18;;;;;;;;;26.75;19.75;;;;;;;;5083209;28;61752;-80
2023/01/22 10:02:45;;;;;;;;;25.25;17.50;;;;;;;;5063382;28;63840;-81
2023/01/22 10:05:16;;;;;;;;;27.75;16.75;;;;;;;;5064082;28;61804;-80
2023/01/22 10:07:46;;;;;;;;;29.25;22.25;;;;;;;;5080791;28;62149;-81
2023/01/22 10:10:21;;;;;;;;;22.50;19.75;;;;;;;;5094692;27;61939;-81
2023/01/22 10:13:07;;;;;;;;;23.00;16.00;;;;;;;;5101998;27;62029;-80
2023/01/22 10:15:32;;;;;;;;;27.75;21.75;;;;;;;;5076856;27;62183;-80
2023/01/22 10:17:58;;;;;;;;;30.50;26.00;;;;;;;;5084190;27;62028;-80
2023/01/22 10:20:24;;;;;;;;;19.75;17.50;;;;;;;;5084108;27;62042;-79
2023/01/22 10:22:52;;;;;;;;;26.25;23.00;;;;;;;;5064509;28;64889;-79
2023/01/22 10:25:18;;;;;;;;;23.25;19.50;;;;;;;;5082431;28;61820;-79
2023/01/22 10:27:44;;;;;;;;;30.00;25.50;;;;;;;;5082372;28;61754;-79
2023/01/22 10:30:25;;;;;;;;;26.00;22.50;;;;;;;;5082692;28;61689;-79
2023/01/22 10:33:04;;;;;;;;;28.00;25.50;;;;;;;;5063320;28;64112;-79
2023/01/22 10:35:31;;;;;;;;;27.75;25.50;;;;;;;;5082349;28;61783;-78
2023/01/22 10:37:57;;;;;;;;;28.00;16.50;;;;;;;;5081996;28;62072;-79
2023/01/22 10:40:29;;;;;;;;;21.25;19.50;;;;;;;;5082765;28;61907;-79
2023/01/22 10:43:14;;;;;;;;;27.50;22.00;;;;;;;;5063295;28;64614;-79
2023/01/22 10:45:51;;;;;;;;;22.50;17.75;;;;;;;;5063943;28;61754;-79
2023/01/22 10:48:17;;;;;;;;;23.25;18.00;;;;;;;;5063226;28;62054;-80
2023/01/22 10:50:44;;;;;;;;;22.50;20.50;;;;;;;;5060770;28;62114;-78
2023/01/22 10:53:16;;;;;;;;;14.75;14.75;;;;;;;;5062307;28;63988;-78
2023/01/22 10:55:41;;;;;;;;;20.50;16.50;;;;;;;;5060836;28;62173;-78
2023/01/22 10:58:14;;;;;;;;;22.25;19.25;;;;;;;;5081748;28;62065;-78
2023/01/22 11:00:40;;;;;;;;;17.75;15.00;;;;;;;;5063363;28;62420;-78
2023/01/22 11:03:31;;;;;;;;;29.25;20.75;;;;;;;;5061720;28;63658;-78
2023/01/22 11:05:59;;;;;;;;;21.00;8.50;;;;;;;;5071523;28;62032;-78
2023/01/22 11:08:29;;;;;;;;;20.75;16.25;;;;;;;;5062775;28;61722;-79
2023/01/22 11:10:56;;;;;;;;;34.00;21.75;;;;;;;;5065483;28;62055;-78
2023/01/22 11:13:34;;;;;;;;;31.50;23.00;;;;;;;;5059235;28;64817;-78
2023/01/22 11:16:02;;;;;;;;;20.75;17.50;;;;;;;;5060906;28;61689;-78
2023/01/22 11:18:30;;;;;;;;;24.75;18.25;;;;;;;;5059673;28;62044;-78
2023/01/22 11:20:57;;;;;;;;;17.25;12.75;;;;;;;;5059426;28;62080;-78
2023/01/22 11:23:34;;;;;;;;;23.25;19.00;;;;;;;;5060852;28;61786;-78
2023/01/22 11:26:16;;;;;;;;;27.25;21.00;;;;;;;;5060064;28;61842;-78
2023/01/22 11:28:51;;;;;;;;;14.25;11.00;;;;;;;;5061806;28;61700;-77
2023/01/22 11:31:19;;;;;;;;;18.50;15.25;;;;;;;;5061347;28;62136;-77
2023/01/22 11:34:03;;;;;;;;;21.00;18.50;;;;;;;;5064488;28;62898;-76
2023/01/22 11:36:28;;;;;;;;;23.25;16.00;;;;;;;;5065137;28;61983;-77
2023/01/22 11:38:58;;;;;;;;;13.00;12.00;;;;;;;;5064766;28;61811;-78
2023/01/22 11:41:29;;;;;;;;;36.50;20.25;;;;;;;;5065135;28;61827;-77
2023/01/22 11:43:54;;;;;;;;;15.00;14.25;;;;;;;;5064588;28;61903;-77
2023/01/22 11:46:25;;;;;;;;;39.50;29.00;;;;;;;;5064830;28;62016;-76
2023/01/22 11:48:53;;;;;;;;;23.50;19.25;;;;;;;;5063096;28;62242;-77
2023/01/22 11:51:18;;;;;;;;;21.50;14.25;;;;;;;;5065318;28;61900;-77
2023/01/22 11:53:53;;;;;;;;;21.25;17.00;;;;;;;;5064354;28;61917;-77
2023/01/22 11:56:19;;;;;;;;;23.25;14.25;;;;;;;;5064745;28;61937;-78
2023/01/22 11:58:44;;;;;;;;;17.00;16.25;;;;;;;;5065048;28;61704;-77
2023/01/22 12:01:15;;;;;;;;;32.25;18.75;;;;;;;;5063270;28;62269;-77
2023/01/22 12:03:46;;;;;;;;;20.25;16.25;;;;;;;;5062296;28;65189;-77
2023/01/22 12:06:12;;;;;;;;;20.50;14.75;;;;;;;;5064105;28;61958;-77
2023/01/22 12:09:03;;;;;;;;;27.00;17.00;;;;;;;;5064161;28;62037;-77
2023/01/22 12:11:47;;;;;;;;;19.25;14.00;;;;;;;;5002160;28;61931;-77
2023/01/22 12:14:31;;;;;;;;;12.75;10.25;;;;;;;;5001525;28;61911;-77
2023/01/22 12:17:15;;;;;;;;;13.25;12.25;;;;;;;;5001860;28;61964;-77
2023/01/22 12:19:47;;;;;;;;;21.00;14.50;;;;;;;;5002068;28;61997;-77
2023/01/22 12:22:24;;;;;;;;;14.50;10.50;;;;;;;;5001880;28;62202;-79
2023/01/22 12:24:52;;;;;;;;;16.00;15.50;;;;;;;;5001659;28;61939;-79
2023/01/22 12:27:21;;;;;;;;;17.25;15.25;;;;;;;;4985301;28;61905;-77
2023/01/22 12:29:52;;;;;;;;;19.00;15.75;;;;;;;;4988326;28;61905;-77
2023/01/22 12:32:20;;;;;;;;;15.00;13.75;;;;;;;;4979129;28;61769;-78
2023/01/22 12:34:52;;;;;;;;;13.00;13.00;;;;;;;;4981680;28;61987;-78
2023/01/22 12:37:19;;;;;;;;;15.25;12.50;;;;;;;;4982041;28;61761;-79
2023/01/22 12:39:50;;;;;;;;;15.75;13.75;;;;;;;;4982124;28;61793;-79
2023/01/22 12:42:36;;;;;;;;;8.75;8.50;;;;;;;;4981526;28;61801;-80
2023/01/22 12:45:05;;;;;;;;;13.25;12.50;;;;;;;;4981514;28;61946;-78
2023/01/22 12:47:40;;;;;;;;;17.25;13.75;;;;;;;;4994597;28;61967;-79
2023/01/22 12:50:15;;;;;;;;;13.00;11.50;;;;;;;;5064059;28;61895;-78
2023/01/22 12:52:41;;;;;;;;;16.50;13.25;;;;;;;;5064270;28;61734;-78
2023/01/22 12:55:25;;;;;;;;;11.00;4.00;;;;;;;;5063525;28;62077;-78
2023/01/22 12:57:50;;;;;;;;;15.50;13.50;;;;;;;;5062666;28;61746;-78
2023/01/22 13:00:18;;;;;;;;;16.75;14.00;;;;;;;;5063738;28;62021;-78
2023/01/22 13:02:43;;;;;;;;;18.75;13.75;;;;;;;;5063279;28;61879;-80
2023/01/22 13:05:09;;;;;;;;;17.50;14.75;;;;;;;;5061280;28;63764;-79
2023/01/22 13:07:36;;;;;;;;;15.75;13.75;;;;;;;;5062237;28;62155;-82
2023/01/22 13:10:04;;;;;;;;;15.50;9.75;;;;;;;;5075426;28;61887;-80
2023/01/22 13:12:42;;;;;;;;;11.75;6.75;;;;;;;;5084475;28;61684;-81
2023/01/22 13:15:20;;;;;;;;;16.75;12.50;;;;;;;;5082019;28;64526;-79
2023/01/22 13:17:58;;;;;;;;;28.00;14.25;;;;;;;;5083594;28;61747;-78
2023/01/22 13:20:25;;;;;;;;;13.00;10.75;;;;;;;;5063627;28;61901;-78
2023/01/22 13:22:53;;;;;;;;;11.00;9.25;;;;;;;;5074005;28;61856;-78
2023/01/22 13:25:29;;;;;;;;;13.00;9.50;;;;;;;;5063171;28;61978;-78
2023/01/22 13:27:55;;;;;;;;;12.75;12.75;;;;;;;;5051082;28;62014;-78
2023/01/22 13:30:22;;;;;;;;;14.75;11.25;;;;;;;;5045881;28;61832;-78
2023/01/22 13:32:47;;;;;;;;;19.25;11.75;;;;;;;;5060827;28;62103;-77
2023/01/22 13:35:14;;;;;;;;;13.00;10.00;;;;;;;;5044194;28;64861;-77
2023/01/22 13:37:40;;;;;;;;;17.00;12.00;;;;;;;;5047450;28;62010;-78
2023/01/22 13:40:13;;;;;;;;;16.50;13.50;;;;;;;;5046456;28;62075;-78
2023/01/22 13:42:42;;;;;;;;;13.50;11.75;;;;;;;;5072823;27;61722;-78
2023/01/22 13:45:13;;;;;;;;;14.75;14.25;;;;;;;;5058082;28;65051;-79
2023/01/22 13:47:38;;;;;;;;;14.75;13.50;;;;;;;;5051391;28;61697;-78
2023/01/22 13:50:04;;;;;;;;;10.25;9.75;;;;;;;;5055653;28;61827;-80
2023/01/22 13:52:32;;;;;;;;;11.25;10.00;;;;;;;;5046470;28;62118;-80
2023/01/22 13:55:06;;;;;;;;;14.00;9.00;;;;;;;;5051997;28;63748;-80
2023/01/22 13:57:31;;;;;;;;;11.25;11.25;;;;;;;;5054377;28;62010;-78
2023/01/22 13:59:57;;;;;;;;;24.75;18.25;;;;;;;;5056157;28;61847;-78
2023/01/22 14:02:27;;;;;;;;;14.50;11.25;;;;;;;;5053873;28;62517;-79
2023/01/22 14:04:52;;;;;;;;;9.75;9.25;;;;;;;;5052946;28;63539;-79
2023/01/22 14:07:24;;;;;;;;;11.50;7.25;;;;;;;;5056721;28;61954;-80
2023/01/22 14:09:50;;;;;;;;;12.75;12.75;;;;;;;;5055370;28;62094;-81
2023/01/22 14:12:25;;;;;;;;;10.25;8.00;;;;;;;;5058749;28;61893;-80
2023/01/22 14:14:51;;;;;;;;;14.00;9.75;;;;;;;;5048481;28;61925;-79
2023/01/22 14:17:24;;;;;;;;;23.25;14.75;;;;;;;;5058222;28;62403;-80
2023/01/22 14:19:49;;;;;;;;;15.25;11.50;;;;;;;;5057690;28;61861;-81
2023/01/22 14:22:15;;;;;;;;;14.25;13.75;;;;;;;;5052756;28;62698;-81
2023/01/22 14:24:40;;;;;;;;;13.50;10.00;;;;;;;;5056386;28;61727;-81
2023/01/22 14:27:06;;;;;;;;;9.75;9.50;;;;;;;;5054610;28;61867;-80